Carapicuiba, Brazil
Current Conditions -  °F | °C
As of 11:00 AM on Friday 19 Dec 2014 (Local Time) from SBMT Reporting Station
Few Clouds Few Clouds  
Wind Chill: 81°   Ceiling: Unl
Heat Index: 82°   Visibility: 4mi
Dew Point: 64°   Wind: 2mph
Humidity: 58%   Direction: 230°SW
Pressure: 29.91"   Gusts: NA
Location:  23.52°S, 46.84°W
Report Text: SBMT 191300Z 23002KT 7000 FEW030 27/18 Q1013
Loading
Personal Weather Stations






























Interactive Weather Map New forecast layout! Learn more

10-Day Weather Forecast

Advertisements
Track Severe Weather on mobile